Portada
METAR-TAF:

METAR-TAF

Aeroports :

Berlevåg, Noruega

latitud: 70-52N, longitud: 029-02E, altitud: 1 m

Observació

L'informe es va fer fa 6 hores i 38 minuts, a les 21:50 UTC
Vent 6 kt del Sud/Sud-Oest
Temperatura 1°C
Humitat 80%
Pressió 1002 hPa
Visibilitat 10 km o més
Cel ennuvolat a una alçada de 2000 ft

METAR: ENBV 152150Z 21006KT 9999 BKN020 01/M02 Q1002

Hora: 05:28 (04:28 UTC)


TAF: manca

Observacions i pronòstics meteorològics de més de 4000 aeroports (METAR i TAF).

Les estacions disponibles són els punts grocs i vermells al mapa.

Posi el ratolí al punt desitjat per veure el nom de l'estació.

Feu clic per veure les observacions i els pronòstics meteorològics.

Per canviar el mapa: feu clic els botons verds amb una creu de color negre per apropar; al botó verd amb un guió per allunyar la imatge; o en les fletxes verdes per a mapes adjacents.


METAR-TAF: